Data for 04/29/2017

Time Sea-Level Adjusted Pressure Absolute Pressure Temperature Relative Humidity Dew Point   
(mb) (inHg) (mb) (inHg) (C) (F) (%) (C) (F)
00:05 1023 30.21 852 25.16 1.3 34.3 82 -1.4 29.4
00:10 1023 30.21 852 25.16 1.3 34.4 82 -1.4 29.4
00:15 1023 30.21 852 25.16 1.4 34.4 82 -1.4 29.6
00:20 1023 30.21 852 25.16 1.3 34.4 83 -1.3 29.7
00:25 1023 30.21 852 25.16 1.3 34.3 83 -1.4 29.5
00:30 1023 30.21 852 25.16 1.3 34.3 83 -1.4 29.5
00:35 1023 30.21 852 25.16 1.3 34.3 82 -1.4 29.5
00:40 1023 30.21 852 25.16 1.3 34.3 82 -1.4 29.5
00:45 1023 30.21 852 25.16 1.2 34.2 83 -1.4 29.4
00:50 1023 30.21 852 25.16 1.3 34.3 82 -1.4 29.5
00:55 1023 30.21 852 25.16 1.3 34.4 82 -1.4 29.5
01:00 1023 30.21 852 25.16 1.3 34.3 82 -1.4 29.5
01:05 1023 30.21 852 25.16 1.3 34.3 82 -1.4 29.5
01:10 1023 30.21 852 25.16 1.3 34.3 83 -1.3 29.6
01:15 1023 30.21 852 25.16 1.2 34.2 83 -1.3 29.7
01:20 1023 30.21 852 25.16 1.1 34.1 84 -1.3 29.7
01:25 1023 30.21 852 25.16 1.3 34.3 83 -1.4 29.5
01:30 1023 30.21 852 25.16 1.3 34.4 82 -1.4 29.5
01:35 1023 30.21 852 25.16 1.4 34.4 83 -1.3 29.7
01:40 1023 30.21 852 25.16 1.4 34.6 82 -1.4 29.5
01:45 1023 30.21 852 25.16 1.4 34.6 82 -1.4 29.6
01:50 1023 30.21 852 25.16 1.4 34.5 83 -1.3 29.7
01:55 1023 30.21 852 25.16 1.3 34.3 83 -1.2 29.8
02:00 1023 30.21 852 25.16 1.2 34.2 83 -1.3 29.6
02:05 1023 30.21 852 25.16 1.2 34.2 83 -1.3 29.7
02:10 1023 30.21 852 25.16 1.3 34.3 84 -1.2 29.9
02:15 1023 30.21 852 25.16 1.3 34.3 84 -1.1 30
02:20 1023 30.21 852 25.16 1.3 34.3 84 -1.2 29.9
02:25 1023 30.21 852 25.16 1.2 34.2 84 -1.2 29.8
02:30 1023 30.21 852 25.16 1.2 34.1 85 -1.1 30
02:35 1023 30.21 852 25.16 1.1 34 85 -1.1 30.1
02:40 1023 30.21 852 25.16 1 33.8 86 -1.1 30
02:45 1023 30.21 852 25.16 1 33.7 86 -1.1 30
02:50 1023 30.21 852 25.16 1 33.7 86 -1.2 29.9
02:55 1023 30.21 852 25.16 1 33.8 85 -1.2 29.8
03:00 1023 30.21 852 25.16 1 33.8 84 -1.3 29.6
03:05 1023 30.21 852 25.16 1.1 33.9 84 -1.3 29.6
03:10 1023 30.21 852 25.16 1.1 34.1 83 -1.5 29.3
03:15 1023 30.21 852 25.16 1.2 34.2 82 -1.5 29.2
03:20 1023 30.21 852 25.16 1.2 34.1 82 -1.5 29.3
03:25 1023 30.21 852 25.16 1 33.8 83 -1.5 29.3
03:30 1023 30.21 852 25.16 1 33.7 83 -1.6 29.1
03:35 1023 30.21 852 25.16 0.9 33.7 83 -1.6 29.2
03:40 1023 30.21 852 25.16 0.9 33.7 83 -1.6 29.1
03:45 1023 30.21 852 25.16 1 33.8 83 -1.5 29.2
03:50 1023 30.21 852 25.16 1 33.7 84 -1.5 29.3
03:55 1023 30.21 852 25.16 0.9 33.6 84 -1.5 29.2
04:00 1023 30.21 852 25.16 0.8 33.5 84 -1.5 29.3
04:05 1023 30.21 852 25.16 0.8 33.4 85 -1.4 29.5
04:10 1023 30.21 852 25.16 0.7 33.3 85 -1.5 29.2
04:15 1023 30.21 852 25.16 0.7 33.2 85 -1.6 29.1
04:20 1023 30.21 852 25.16 0.7 33.2 85 -1.5 29.3
04:25 1023 30.21 852 25.16 0.6 33.1 86 -1.5 29.4
04:30 1023 30.21 852 25.16 0.5 32.9 87 -1.5 29.4
04:35 1023 30.21 852 25.16 0.5 32.9 87 -1.5 29.4
04:40 1023 30.21 853 25.19 0.5 32.9 86 -1.5 29.3
04:45 1023 30.21 853 25.19 0.5 32.9 86 -1.5 29.3
04:50 1023 30.21 853 25.19 0.5 32.9 87 -1.5 29.3
04:55 1023 30.21 853 25.19 0.4 32.8 87 -1.4 29.4
05:00 1023 30.21 853 25.19 0.3 32.6 88 -1.5 29.4
05:05 1023 30.21 853 25.19 0.4 32.7 88 -1.5 29.4
05:10 1023 30.21 853 25.19 0.4 32.6 88 -1.4 29.4
05:15 1024 30.24 853 25.19 0.3 32.5 88 -1.5 29.3
05:20 1024 30.24 853 25.19 0.4 32.7 88 -1.4 29.4
05:25 1024 30.24 853 25.19 0.5 32.9 87 -1.5 29.3
05:30 1024 30.24 853 25.19 0.6 33 86 -1.5 29.3
05:35 1024 30.24 853 25.19 0.5 33 86 -1.5 29.3
05:40 1024 30.24 853 25.19 0.5 32.9 86 -1.5 29.3
05:45 1024 30.24 853 25.19 0.6 33 87 -1.4 29.5
05:50 1024 30.24 853 25.19 0.6 33 87 -1.4 29.5
05:55 1024 30.24 853 25.19 0.5 32.8 87 -1.5 29.3
06:00 1024 30.24 853 25.19 0.6 33 86 -1.5 29.3
06:05 1024 30.24 853 25.19 1 33.8 84 -1.4 29.4
06:10 1024 30.24 853 25.19 1.5 34.8 81 -1.3 29.6
06:15 1024 30.24 853 25.19 1.5 34.6 79 -1.8 28.8
06:20 1024 30.24 853 25.19 1.4 34.5 78 -2.1 28.2
06:25 1024 30.24 853 25.19 1.3 34.3 78 -2.2 28.1
06:30 1024 30.24 853 25.19 1.1 33.9 79 -2.1 28.2
06:35 1024 30.24 853 25.19 1.1 34 80 -2.1 28.3
06:40 1024 30.24 853 25.19 1.4 34.5 79 -1.8 28.7
06:45 1024 30.24 853 25.19 2 35.6 79 -1.3 29.6
06:50 1024 30.24 853 25.19 2.4 36.2 78 -1 30.1
06:55 1024 30.24 853 25.19 2.1 35.8 80 -1 30.2
07:00 1024 30.24 853 25.19 2.8 37.1 76 -1.1 30.1
07:05 1024 30.24 853 25.19 3.1 37.6 74 -1.1 30.1
07:10 1024 30.24 853 25.19 3.1 37.6 75 -0.9 30.3
07:15 1024 30.24 854 25.22 3.8 38.8 72 -0.8 30.5
07:20 1024 30.24 854 25.22 3.9 39 72 -0.8 30.6
07:25 1024 30.24 854 25.22 3.8 38.8 72 -0.9 30.4
07:30 1024 30.24 854 25.22 3.5 38.4 73 -0.9 30.5
07:35 1024 30.24 854 25.22 3.9 39 70 -1 30.2
07:40 1024 30.24 854 25.22 4.3 39.7 69 -0.9 30.3
07:45 1024 30.24 854 25.22 4.4 39.9 68 -1 30.2
07:50 1024 30.24 854 25.22 4.7 40.5 67 -0.9 30.4
07:55 1024 30.24 854 25.22 4.8 40.7 66 -0.9 30.3
08:00 1024 30.24 854 25.22 5.4 41.8 63 -1 30.2
08:05 1024 30.24 854 25.22 5.1 41.2 65 -0.9 30.3
08:10 1024 30.24 854 25.22 4.6 40.3 66 -1.2 29.9
08:15 1024 30.24 854 25.22 5.4 41.7 63 -1.1 30.1
08:20 1024 30.24 854 25.22 6.1 43 60 -1 30.2
08:25 1024 30.24 854 25.22 5.7 42.3 61 -1.2 29.8
08:30 1024 30.24 854 25.22 6.4 43.5 57 -1.4 29.5
08:35 1024 30.24 854 25.22 6.4 43.5 57 -1.4 29.5
08:40 1024 30.24 854 25.22 6.9 44.5 56 -1.3 29.7
08:45 1024 30.24 854 25.22 7 44.6 56 -1.3 29.7
08:50 1024 30.24 853 25.19 6.8 44.2 56 -1.4 29.5
08:55 1024 30.24 853 25.19 6.5 43.6 56 -1.6 29.1
09:00 1024 30.24 853 25.19 6 42.7 58 -1.7 28.9
09:05 1024 30.24 853 25.19 6.3 43.4 54 -2.2 28
09:10 1024 30.24 853 25.19 6.7 44 54 -1.9 28.5
09:15 1024 30.24 853 25.19 6.9 44.4 54 -1.7 29
09:20 1024 30.24 853 25.19 6.8 44.3 53 -2 28.4
09:25 1024 30.24 853 25.19 6.5 43.7 55 -1.9 28.6
09:30 1024 30.24 853 25.19 6.6 43.9 54 -2.1 28.2
09:35 1024 30.24 853 25.19 6.6 44 55 -1.8 28.8
09:40 1024 30.24 853 25.19 6.7 44.1 53 -2.1 28.3
09:45 1024 30.24 853 25.19 8.1 46.5 52 -1.2 29.9
09:50 1024 30.24 853 25.19 8.9 48.1 47 -1.8 28.7
09:55 1024 30.24 853 25.19 8.9 48 46 -2.2 28.1
10:00 1024 30.24 853 25.19 8.8 47.8 46 -2.2 28
10:05 1024 30.24 853 25.19 8.2 46.8 49 -1.7 28.9
10:10 1024 30.24 853 25.19 9 48.1 44 -2.6 27.4
10:15 1024 30.24 853 25.19 8.2 46.8 43 -3.6 25.5
10:20 1024 30.24 853 25.19 9.2 48.5 37 -4.8 23.4
10:25 1024 30.24 853 25.19 9.8 49.7 32 -6 21.3
10:30 1024 30.24 853 25.19 9.4 48.9 38 -4.1 24.7
10:35 1024 30.24 853 25.19 8.3 46.9 39 -4.8 23.3
10:40 1024 30.24 853 25.19 7.4 45.3 42 -4.6 23.8
10:45 1024 30.24 853 25.19 7.5 45.4 42 -4.7 23.5
10:50 1024 30.24 853 25.19 7.7 45.9 42 -4.2 24.4
10:55 1024 30.24 853 25.19 8.5 47.3 42 -3.8 25.2
11:00 1024 30.24 853 25.19 8.6 47.5 40 -4.2 24.5
11:05 1024 30.24 853 25.19 8.1 46.6 42 -4.1 24.6
11:10 1024 30.24 853 25.19 8.1 46.6 44 -3.5 25.8
11:15 1024 30.24 853 25.19 7.6 45.7 47 -3 26.6
11:20 1024 30.24 853 25.19 7 44.7 50 -2.7 27.2
11:25 1024 30.24 853 25.19 7.6 45.6 46 -3.4 25.9
11:30 1024 30.24 853 25.19 8.1 46.5 44 -3.5 25.7
11:35 1024 30.24 853 25.19 8.7 47.7 38 -4.7 23.5
11:40 1023 30.21 853 25.19 9.3 48.8 39 -3.9 25
11:45 1023 30.21 853 25.19 9.6 49.3 35 -5.2 22.6
11:50 1023 30.21 853 25.19 9.9 49.8 35 -4.8 23.3
11:55 1023 30.21 853 25.19 10.3 50.6 30 -6.3 20.7
12:00 1023 30.21 853 25.19 10.8 51.4 29 -6.5 20.3
12:05 1023 30.21 852 25.16 10.9 51.7 31 -5.7 21.7
12:10 1023 30.21 852 25.16 10.4 50.6 31 -5.9 21.5
12:15 1023 30.21 852 25.16 11.2 52.1 30 -5.9 21.4
12:20 1023 30.21 852 25.16 11.6 52.8 29 -5.6 21.9
12:25 1023 30.21 852 25.16 11.9 53.3 28 -6.1 21.1
12:30 1023 30.21 852 25.16 12 53.5 27 -6.3 20.6
12:35 1023 30.21 852 25.16 12.1 53.9 27 -6.5 20.3
12:40 1023 30.21 852 25.16 11.8 53.3 28 -6.1 21
12:45 1023 30.21 852 25.16 10.4 50.7 29 -6.7 19.9
12:50 1023 30.21 852 25.16 10.9 51.7 28 -6.9 19.5
12:55 1023 30.21 852 25.16 11.8 53.2 29 -5.8 21.5
13:00 1023 30.21 852 25.16 11.8 53.2 35 -3.3 26.1
13:05 1023 30.21 852 25.16 10.8 51.5 33 -4.8 23.4
13:10 1023 30.21 852 25.16 11.1 51.9 33 -4.8 23.4
13:15 1023 30.21 852 25.16 11.2 52.2 28 -6.8 19.8
13:20 1023 30.21 852 25.16 11.9 53.5 27 -6.7 20
13:25 1023 30.21 852 25.16 11.9 53.5 27 -6.5 20.3
13:30 1023 30.21 852 25.16 11.4 52.5 29 -6 21.2
13:35 1022 30.18 852 25.16 11 51.8 29 -6.4 20.4
13:40 1022 30.18 852 25.16 11.4 52.6 29 -5.9 21.4
13:45 1022 30.18 851 25.13 12.2 54 27 -6.4 20.4
13:50 1022 30.18 851 25.13 12.6 54.6 27 -5.9 21.4
13:55 1022 30.18 851 25.13 11.9 53.4 28 -6 21.2
14:00 1022 30.18 851 25.13 11.8 53.2 30 -5.3 22.5
14:05 1022 30.18 851 25.13 11.8 53.3 28 -5.9 21.3
14:10 1022 30.18 851 25.13 12.5 54.4 26 -6.6 20.2
14:15 1022 30.18 851 25.13 13 55.4 27 -5.7 21.8
14:20 1022 30.18 851 25.13 12.4 54.3 26 -6.5 20.2
14:25 1022 30.18 851 25.13 12.9 55.3 27 -5.6 21.8
14:30 1022 30.18 851 25.13 12.7 54.9 27 -5.6 21.8
14:35 1022 30.18 851 25.13 12.2 54 28 -5.6 22
14:40 1022 30.18 851 25.13 12.1 53.8 31 -4.5 23.9
14:45 1022 30.18 851 25.13 10.1 50.1 36 -4.2 24.4
14:50 1022 30.18 851 25.13 8.7 47.7 34 -6.4 20.5
14:55 1022 30.18 851 25.13 8.5 47.3 32 -7.1 19.3
15:00 1022 30.18 851 25.13 9.3 48.7 29 -7.8 17.9
15:05 1022 30.18 851 25.13 9.8 49.7 27 -8.1 17.4
15:10 1021 30.15 851 25.13 11.1 51.9 25 -8.4 16.9
15:15 1021 30.15 851 25.13 11.1 52 25 -8.2 17.3
15:20 1021 30.15 851 25.13 11.2 52.1 25 -8.2 17.3
15:25 1021 30.15 851 25.13 11.1 52.1 27 -7.4 18.7
15:30 1021 30.15 851 25.13 11 51.9 27 -7.4 18.7
15:35 1021 30.15 850 25.1 11.6 52.9 27 -6.9 19.6
15:40 1021 30.15 850 25.1 11.3 52.3 28 -6.6 20.1
15:45 1021 30.15 850 25.1 11.1 52 27 -7.2 19
15:50 1021 30.15 850 25.1 11.4 52.6 27 -6.8 19.8
15:55 1021 30.15 850 25.1 11.1 51.9 27 -7.3 18.8
16:00 1021 30.15 850 25.1 11.6 52.9 26 -7 19.4
16:05 1021 30.15 850 25.1 12.3 54.1 24 -8 17.7
16:10 1021 30.15 850 25.1 12.3 54.1 24 -7.8 17.9
16:15 1021 30.15 850 25.1 11.8 53.2 24 -8.1 17.3
16:20 1021 30.15 850 25.1 12.4 54.2 24 -7.5 18.5
16:25 1021 30.15 850 25.1 12.3 54.1 25 -7.4 18.7
16:30 1021 30.15 850 25.1 12.6 54.7 24 -7.4 18.7
16:35 1021 30.15 850 25.1 13.2 55.7 24 -7.1 19.2
16:40 1021 30.15 850 25.1 13.2 55.8 25 -6.5 20.4
16:45 1020 30.12 850 25.1 11.5 52.6 27 -7.1 19.3
16:50 1020 30.12 850 25.1 11.1 52.1 27 -7.1 19.2
16:55 1020 30.12 850 25.1 12.1 53.7 26 -6.9 19.6
17:00 1020 30.12 850 25.1 12.2 54 26 -6.8 19.8
17:05 1020 30.12 850 25.1 12.2 54 26 -6.5 20.3
17:10 1020 30.12 849 25.07 11.5 52.7 27 -6.8 19.7
17:15 1020 30.12 849 25.07 12 53.6 26 -6.9 19.5
17:20 1020 30.12 849 25.07 12.3 54.2 24 -7.7 18.2
17:25 1020 30.12 849 25.07 12.1 53.7 24 -7.7 18.2
17:30 1020 30.12 849 25.07 12.3 54.2 25 -7.3 18.8
17:35 1020 30.12 849 25.07 12.5 54.5 25 -7.2 19.1
17:40 1020 30.12 849 25.07 12.6 54.6 23 -7.9 17.7
17:45 1020 30.12 849 25.07 12.6 54.6 25 -7 19.5
17:50 1020 30.12 849 25.07 12 53.5 25 -7.7 18.2
17:55 1020 30.12 849 25.07 11.3 52.3 26 -7.5 18.5
18:00 1020 30.12 849 25.07 11.3 52.4 25 -7.9 17.7
18:05 1020 30.12 849 25.07 11.5 52.6 25 -7.9 17.9
18:10 1020 30.12 849 25.07 11.4 52.5 26 -7.6 18.4
18:15 1020 30.12 849 25.07 11.2 52.1 26 -7.8 17.9
18:20 1020 30.12 849 25.07 11.2 52.2 26 -7.7 18.2
18:25 1020 30.12 849 25.07 10.9 51.7 26 -7.9 17.8
18:30 1020 30.12 849 25.07 10.8 51.5 27 -7.5 18.5
18:35 1020 30.12 849 25.07 10.8 51.5 27 -7.6 18.4
18:40 1020 30.12 849 25.07 10.8 51.5 27 -7.2 19
18:45 1020 30.12 849 25.07 10.8 51.4 28 -7.1 19.2
18:50 1020 30.12 849 25.07 10.5 51 27 -7.8 18
18:55 1020 30.12 849 25.07 10.4 50.7 28 -7.3 18.8
19:00 1020 30.12 849 25.07 10.3 50.5 28 -7.3 18.9
19:05 1020 30.12 849 25.07 10.2 50.4 30 -6.8 19.8
19:10 1020 30.12 849 25.07 10.1 50.2 32 -5.7 21.7
19:15 1020 30.12 849 25.07 9.7 49.5 38 -3.9 24.9
19:20 1020 30.12 849 25.07 9.2 48.5 41 -3.4 25.9
19:25 1020 30.12 849 25.07 8.8 47.8 43 -3 26.6
19:30 1020 30.12 849 25.07 8.3 46.9 48 -2.1 28.2
19:35 1020 30.12 849 25.07 7.7 45.9 50 -2 28.5
19:40 1020 30.12 849 25.07 7.3 45.2 52 -1.8 28.7
19:45 1020 30.12 849 25.07 6.9 44.4 54 -1.7 29
19:50 1020 30.12 849 25.07 6.7 44 55 -1.6 29.1
19:55 1020 30.12 849 25.07 6.5 43.7 56 -1.7 28.9
20:00 1020 30.12 849 25.07 6.3 43.3 56 -1.9 28.6
20:05 1020 30.12 849 25.07 6.1 42.9 55 -2.2 28
20:10 1020 30.12 849 25.07 5.9 42.5 55 -2.4 27.7
20:15 1020 30.12 849 25.07 5.6 42.1 55 -2.7 27.2
20:20 1020 30.12 849 25.07 5.4 41.7 56 -2.7 27.1
20:25 1020 30.12 849 25.07 5.3 41.5 57 -2.6 27.3
20:30 1020 30.12 849 25.07 5.1 41.3 57 -2.7 27.2
20:35 1020 30.12 849 25.07 5.1 41.3 57 -2.7 27.1
20:40 1020 30.12 849 25.07 5.3 41.5 53 -3.4 25.8
20:45 1020 30.12 849 25.07 5.3 41.6 55 -3 26.5
20:50 1020 30.12 849 25.07 5.1 41.2 54 -3.4 25.9
20:55 1020 30.12 849 25.07 5.1 41.2 54 -3.4 25.9
21:00 1020 30.12 849 25.07 5.2 41.3 54 -3.3 26.1
21:05 1020 30.12 849 25.07 5.1 41.1 55 -3.3 26.1
21:10 1020 30.12 849 25.07 5 40.9 56 -3.1 26.4
21:15 1020 30.12 849 25.07 4.9 40.8 56 -3.2 26.2
21:20 1020 30.12 849 25.07 4.8 40.7 55 -3.5 25.7
21:25 1020 30.12 849 25.07 4.9 40.8 56 -3.2 26.3
21:30 1020 30.12 849 25.07 4.8 40.6 55 -3.4 25.9
21:35 1020 30.12 849 25.07 4.7 40.5 56 -3.4 25.9
21:40 1020 30.12 849 25.07 4.6 40.3 56 -3.3 26
21:45 1020 30.12 849 25.07 4.5 40.1 56 -3.6 25.6
21:50 1020 30.12 849 25.07 4.5 40.2 56 -3.4 25.8
21:55 1020 30.12 849 25.07 4.5 40.1 56 -3.4 25.8
22:00 1020 30.12 849 25.07 4.2 39.6 58 -3.4 25.9
22:05 1019 30.09 849 25.07 4.1 39.5 57 -3.6 25.5
22:10 1019 30.09 849 25.07 4 39.3 58 -3.5 25.6
22:15 1019 30.09 849 25.07 4 39.2 57 -3.6 25.4
22:20 1019 30.09 849 25.07 4 39.2 57 -3.8 25.2
22:25 1019 30.09 849 25.07 4 39.3 56 -3.9 25.1
22:30 1019 30.09 849 25.07 4 39.2 58 -3.5 25.7
22:35 1019 30.09 849 25.07 3.8 38.9 59 -3.6 25.6
22:40 1019 30.09 849 25.07 3.8 38.8 58 -3.7 25.4
22:45 1019 30.09 849 25.07 3.7 38.7 59 -3.6 25.5
22:50 1019 30.09 849 25.07 3.7 38.7 59 -3.6 25.6
22:55 1019 30.09 848 25.04 3.7 38.7 57 -4 24.7
23:00 1019 30.09 848 25.04 3.8 38.9 58 -3.7 25.4
23:05 1019 30.09 848 25.04 3.7 38.6 59 -3.7 25.4
23:10 1019 30.09 848 25.04 3.3 38 60 -3.7 25.3
23:15 1019 30.09 848 25.04 3 37.5 62 -3.6 25.6
23:20 1019 30.09 848 25.04 2.8 37 61 -4 24.9
23:25 1019 30.09 848 25.04 2.8 37.1 61 -4 24.8
23:30 1019 30.09 848 25.04 2.9 37.2 60 -4 24.7
23:35 1019 30.09 848 25.04 2.8 37.1 61 -3.9 24.9
23:40 1019 30.09 849 25.07 2.8 37 60 -4.2 24.4
23:45 1019 30.09 848 25.04 3 37.4 59 -4.2 24.4
23:50 1019 30.09 848 25.04 3.1 37.5 59 -4.2 24.4
23:55 1019 30.09 848 25.04 3.1 37.6 58 -4.3 24.2
24:00 1019 30.09 848 25.04 3.2 37.7 56 -4.7 23.5